sensor_id;sensor_type;location;lat;lon;timestamp;P1;durP1;ratioP1;P2;durP2;ratioP2
81298;SDS011;70766;53.170;18.160;2023-09-19T00:02:14;27.50;;;18.90;;
81298;SDS011;70766;53.170;18.160;2023-09-19T00:04:43;39.70;;;22.40;;
81298;SDS011;70766;53.170;18.160;2023-09-19T00:07:11;41.80;;;23.20;;
81298;SDS011;70766;53.170;18.160;2023-09-19T00:09:39;41.00;;;23.30;;
81298;SDS011;70766;53.170;18.160;2023-09-19T00:12:07;31.90;;;18.70;;
81298;SDS011;70766;53.170;18.160;2023-09-19T00:14:37;24.80;;;18.80;;
81298;SDS011;70766;53.170;18.160;2023-09-19T00:17:05;29.70;;;20.20;;
81298;SDS011;70766;53.170;18.160;2023-09-19T00:19:36;28.60;;;19.90;;
81298;SDS011;70766;53.170;18.160;2023-09-19T00:22:05;28.30;;;18.40;;
81298;SDS011;70766;53.170;18.160;2023-09-19T00:24:33;62.00;;;30.30;;
81298;SDS011;70766;53.170;18.160;2023-09-19T00:27:02;86.90;;;38.70;;
81298;SDS011;70766;53.170;18.160;2023-09-19T00:29:31;82.00;;;34.50;;
81298;SDS011;70766;53.170;18.160;2023-09-19T00:32:00;35.20;;;21.20;;
81298;SDS011;70766;53.170;18.160;2023-09-19T00:34:31;45.20;;;24.10;;
81298;SDS011;70766;53.170;18.160;2023-09-19T00:37:02;36.10;;;22.10;;
81298;SDS011;70766;53.170;18.160;2023-09-19T00:39:30;29.30;;;20.40;;
81298;SDS011;70766;53.170;18.160;2023-09-19T00:41:59;32.30;;;20.40;;
81298;SDS011;70766;53.170;18.160;2023-09-19T00:44:32;28.60;;;19.20;;
81298;SDS011;70766;53.170;18.160;2023-09-19T00:47:02;31.60;;;19.70;;
81298;SDS011;70766;53.170;18.160;2023-09-19T00:49:31;26.10;;;17.90;;
81298;SDS011;70766;53.170;18.160;2023-09-19T00:52:01;25.20;;;18.70;;
81298;SDS011;70766;53.170;18.160;2023-09-19T00:54:32;27.60;;;19.20;;
81298;SDS011;70766;53.170;18.160;2023-09-19T00:57:03;30.70;;;19.70;;
81298;SDS011;70766;53.170;18.160;2023-09-19T00:59:31;29.70;;;19.80;;
81298;SDS011;70766;53.170;18.160;2023-09-19T01:01:59;32.20;;;20.90;;
81298;SDS011;70766;53.170;18.160;2023-09-19T01:04:28;28.40;;;20.20;;
81298;SDS011;70766;53.170;18.160;2023-09-19T01:06:57;26.70;;;18.70;;
81298;SDS011;70766;53.170;18.160;2023-09-19T01:09:26;27.50;;;17.80;;
81298;SDS011;70766;53.170;18.160;2023-09-19T01:11:57;28.50;;;19.20;;
81298;SDS011;70766;53.170;18.160;2023-09-19T01:14:34;23.40;;;16.70;;
81298;SDS011;70766;53.170;18.160;2023-09-19T01:17:19;17.40;;;12.80;;
81298;SDS011;70766;53.170;18.160;2023-09-19T01:25:39;16.80;;;10.80;;
81298;SDS011;70766;53.170;18.160;2023-09-19T01:30:43;13.40;;;8.20;;
81298;SDS011;70766;53.170;18.160;2023-09-19T01:33:12;12.10;;;7.10;;
81298;SDS011;70766;53.170;18.160;2023-09-19T01:35:40;10.60;;;6.20;;
81298;SDS011;70766;53.170;18.160;2023-09-19T01:38:08;10.00;;;6.00;;
81298;SDS011;70766;53.170;18.160;2023-09-19T01:40:41;9.70;;;5.80;;
81298;SDS011;70766;53.170;18.160;2023-09-19T01:51:10;7.20;;;4.10;;
81298;SDS011;70766;53.170;18.160;2023-09-19T01:56:50;7.60;;;3.80;;
81298;SDS011;70766;53.170;18.160;2023-09-19T01:59:25;11.80;;;5.60;;
81298;SDS011;70766;53.170;18.160;2023-09-19T02:01:58;10.40;;;4.40;;
81298;SDS011;70766;53.170;18.160;2023-09-19T02:04:28;11.30;;;5.40;;
81298;SDS011;70766;53.170;18.160;2023-09-19T02:06:57;7.00;;;3.60;;
81298;SDS011;70766;53.170;18.160;2023-09-19T02:09:25;6.20;;;3.50;;
81298;SDS011;70766;53.170;18.160;2023-09-19T02:11:54;8.90;;;3.50;;
81298;SDS011;70766;53.170;18.160;2023-09-19T02:14:23;7.20;;;3.40;;
81298;SDS011;70766;53.170;18.160;2023-09-19T02:16:51;17.00;;;7.50;;
81298;SDS011;70766;53.170;18.160;2023-09-19T02:19:19;7.80;;;4.00;;
81298;SDS011;70766;53.170;18.160;2023-09-19T02:21:50;11.50;;;5.70;;
81298;SDS011;70766;53.170;18.160;2023-09-19T02:24:18;14.90;;;6.10;;
81298;SDS011;70766;53.170;18.160;2023-09-19T02:26:46;6.60;;;3.40;;
81298;SDS011;70766;53.170;18.160;2023-09-19T02:29:15;8.10;;;4.00;;
81298;SDS011;70766;53.170;18.160;2023-09-19T02:31:43;8.90;;;4.20;;
81298;SDS011;70766;53.170;18.160;2023-09-19T02:34:11;7.40;;;3.80;;
81298;SDS011;70766;53.170;18.160;2023-09-19T02:36:39;12.90;;;5.60;;
81298;SDS011;70766;53.170;18.160;2023-09-19T02:39:07;8.40;;;3.70;;
81298;SDS011;70766;53.170;18.160;2023-09-19T02:41:36;12.80;;;6.00;;
81298;SDS011;70766;53.170;18.160;2023-09-19T02:44:04;8.40;;;4.40;;
81298;SDS011;70766;53.170;18.160;2023-09-19T02:46:35;14.80;;;5.80;;
81298;SDS011;70766;53.170;18.160;2023-09-19T02:49:06;8.70;;;4.10;;
81298;SDS011;70766;53.170;18.160;2023-09-19T02:51:34;8.90;;;4.30;;
81298;SDS011;70766;53.170;18.160;2023-09-19T02:54:02;11.60;;;4.70;;
81298;SDS011;70766;53.170;18.160;2023-09-19T02:56:31;13.90;;;6.50;;
81298;SDS011;70766;53.170;18.160;2023-09-19T02:59:00;25.20;;;9.30;;
81298;SDS011;70766;53.170;18.160;2023-09-19T03:01:28;11.10;;;4.30;;
81298;SDS011;70766;53.170;18.160;2023-09-19T03:03:57;15.10;;;5.90;;
81298;SDS011;70766;53.170;18.160;2023-09-19T03:06:25;11.70;;;4.60;;
81298;SDS011;70766;53.170;18.160;2023-09-19T03:08:53;8.20;;;4.20;;
81298;SDS011;70766;53.170;18.160;2023-09-19T03:11:23;23.10;;;9.00;;
81298;SDS011;70766;53.170;18.160;2023-09-19T03:13:56;11.80;;;5.30;;
81298;SDS011;70766;53.170;18.160;2023-09-19T03:16:24;12.80;;;5.50;;
81298;SDS011;70766;53.170;18.160;2023-09-19T03:18:55;20.10;;;8.10;;
81298;SDS011;70766;53.170;18.160;2023-09-19T03:21:23;18.70;;;8.70;;
81298;SDS011;70766;53.170;18.160;2023-09-19T03:23:52;17.40;;;8.40;;
81298;SDS011;70766;53.170;18.160;2023-09-19T03:26:21;17.60;;;9.20;;
81298;SDS011;70766;53.170;18.160;2023-09-19T03:28:49;18.20;;;8.20;;
81298;SDS011;70766;53.170;18.160;2023-09-19T03:31:17;13.70;;;8.00;;
81298;SDS011;70766;53.170;18.160;2023-09-19T03:33:46;16.10;;;8.60;;
81298;SDS011;70766;53.170;18.160;2023-09-19T03:36:14;15.00;;;8.50;;
81298;SDS011;70766;53.170;18.160;2023-09-19T03:38:43;14.10;;;7.80;;
81298;SDS011;70766;53.170;18.160;2023-09-19T03:41:11;16.20;;;8.50;;
81298;SDS011;70766;53.170;18.160;2023-09-19T03:43:42;15.50;;;8.20;;
81298;SDS011;70766;53.170;18.160;2023-09-19T03:46:11;14.60;;;6.90;;
81298;SDS011;70766;53.170;18.160;2023-09-19T03:48:40;15.50;;;7.90;;
81298;SDS011;70766;53.170;18.160;2023-09-19T03:51:08;18.20;;;7.70;;
81298;SDS011;70766;53.170;18.160;2023-09-19T03:53:36;16.70;;;8.70;;
81298;SDS011;70766;53.170;18.160;2023-09-19T03:56:05;50.10;;;17.00;;
81298;SDS011;70766;53.170;18.160;2023-09-19T03:58:33;51.50;;;17.50;;
81298;SDS011;70766;53.170;18.160;2023-09-19T04:01:06;19.30;;;8.40;;
81298;SDS011;70766;53.170;18.160;2023-09-19T04:03:37;25.50;;;9.80;;
81298;SDS011;70766;53.170;18.160;2023-09-19T04:06:16;14.20;;;7.70;;
81298;SDS011;70766;53.170;18.160;2023-09-19T04:08:45;16.80;;;8.00;;
81298;SDS011;70766;53.170;18.160;2023-09-19T04:11:15;19.20;;;9.00;;
81298;SDS011;70766;53.170;18.160;2023-09-19T04:13:43;16.30;;;8.70;;
81298;SDS011;70766;53.170;18.160;2023-09-19T04:16:11;18.40;;;9.10;;
81298;SDS011;70766;53.170;18.160;2023-09-19T04:18:39;39.50;;;16.40;;
81298;SDS011;70766;53.170;18.160;2023-09-19T04:21:09;34.30;;;13.90;;
81298;SDS011;70766;53.170;18.160;2023-09-19T04:23:37;15.10;;;8.20;;
81298;SDS011;70766;53.170;18.160;2023-09-19T04:26:05;14.30;;;7.60;;
81298;SDS011;70766;53.170;18.160;2023-09-19T04:28:35;14.60;;;7.40;;
81298;SDS011;70766;53.170;18.160;2023-09-19T04:31:06;16.40;;;7.80;;
81298;SDS011;70766;53.170;18.160;2023-09-19T04:33:36;15.00;;;7.80;;
81298;SDS011;70766;53.170;18.160;2023-09-19T04:36:04;36.10;;;14.20;;
81298;SDS011;70766;53.170;18.160;2023-09-19T04:38:55;19.40;;;8.50;;
81298;SDS011;70766;53.170;18.160;2023-09-19T04:41:23;29.60;;;19.10;;
81298;SDS011;70766;53.170;18.160;2023-09-19T04:43:52;18.00;;;9.60;;
81298;SDS011;70766;53.170;18.160;2023-09-19T04:46:20;16.00;;;8.30;;
81298;SDS011;70766;53.170;18.160;2023-09-19T04:48:49;13.60;;;7.20;;
81298;SDS011;70766;53.170;18.160;2023-09-19T04:51:17;15.80;;;7.70;;
81298;SDS011;70766;53.170;18.160;2023-09-19T04:53:46;14.20;;;6.90;;
81298;SDS011;70766;53.170;18.160;2023-09-19T04:56:15;12.80;;;6.90;;
81298;SDS011;70766;53.170;18.160;2023-09-19T04:58:43;15.90;;;7.40;;
81298;SDS011;70766;53.170;18.160;2023-09-19T05:01:12;10.30;;;6.50;;
81298;SDS011;70766;53.170;18.160;2023-09-19T05:03:43;10.50;;;6.60;;
81298;SDS011;70766;53.170;18.160;2023-09-19T05:06:13;11.90;;;6.20;;
81298;SDS011;70766;53.170;18.160;2023-09-19T05:08:41;12.20;;;6.20;;
81298;SDS011;70766;53.170;18.160;2023-09-19T05:11:09;12.30;;;6.30;;
81298;SDS011;70766;53.170;18.160;2023-09-19T05:13:37;14.20;;;6.80;;
81298;SDS011;70766;53.170;18.160;2023-09-19T05:16:05;11.90;;;6.10;;
81298;SDS011;70766;53.170;18.160;2023-09-19T05:18:33;9.90;;;5.50;;
81298;SDS011;70766;53.170;18.160;2023-09-19T05:21:02;12.70;;;6.20;;
81298;SDS011;70766;53.170;18.160;2023-09-19T05:23:30;14.00;;;6.30;;
81298;SDS011;70766;53.170;18.160;2023-09-19T05:25:59;17.70;;;7.30;;
81298;SDS011;70766;53.170;18.160;2023-09-19T05:28:27;13.80;;;6.90;;
81298;SDS011;70766;53.170;18.160;2023-09-19T05:30:55;14.40;;;6.70;;
81298;SDS011;70766;53.170;18.160;2023-09-19T05:33:23;13.90;;;6.50;;
81298;SDS011;70766;53.170;18.160;2023-09-19T05:35:52;16.30;;;6.90;;
81298;SDS011;70766;53.170;18.160;2023-09-19T05:38:21;16.30;;;8.30;;
81298;SDS011;70766;53.170;18.160;2023-09-19T05:40:50;13.00;;;7.70;;
81298;SDS011;70766;53.170;18.160;2023-09-19T05:43:18;11.60;;;7.20;;
81298;SDS011;70766;53.170;18.160;2023-09-19T05:45:47;13.20;;;6.30;;
81298;SDS011;70766;53.170;18.160;2023-09-19T05:48:15;10.30;;;5.70;;
81298;SDS011;70766;53.170;18.160;2023-09-19T05:50:44;11.10;;;5.40;;
81298;SDS011;70766;53.170;18.160;2023-09-19T05:53:16;12.70;;;6.40;;
81298;SDS011;70766;53.170;18.160;2023-09-19T05:55:46;10.30;;;6.10;;
81298;SDS011;70766;53.170;18.160;2023-09-19T05:58:14;11.40;;;5.20;;
81298;SDS011;70766;53.170;18.160;2023-09-19T06:00:45;9.60;;;6.10;;
81298;SDS011;70766;53.170;18.160;2023-09-19T06:03:15;10.80;;;5.70;;
81298;SDS011;70766;53.170;18.160;2023-09-19T06:05:45;12.00;;;5.60;;
81298;SDS011;70766;53.170;18.160;2023-09-19T06:08:17;15.70;;;6.50;;
81298;SDS011;70766;53.170;18.160;2023-09-19T06:10:46;9.50;;;5.50;;
81298;SDS011;70766;53.170;18.160;2023-09-19T06:13:14;11.70;;;6.40;;
81298;SDS011;70766;53.170;18.160;2023-09-19T06:15:43;8.80;;;4.60;;
81298;SDS011;70766;53.170;18.160;2023-09-19T06:18:11;9.80;;;5.80;;
81298;SDS011;70766;53.170;18.160;2023-09-19T06:20:48;9.70;;;5.90;;
81298;SDS011;70766;53.170;18.160;2023-09-19T06:23:21;9.00;;;5.50;;
81298;SDS011;70766;53.170;18.160;2023-09-19T06:25:49;9.80;;;6.40;;
81298;SDS011;70766;53.170;18.160;2023-09-19T06:28:17;11.00;;;6.70;;
81298;SDS011;70766;53.170;18.160;2023-09-19T06:30:51;13.90;;;7.50;;
81298;SDS011;70766;53.170;18.160;2023-09-19T06:33:20;13.10;;;6.60;;
81298;SDS011;70766;53.170;18.160;2023-09-19T06:35:49;9.80;;;5.70;;
81298;SDS011;70766;53.170;18.160;2023-09-19T06:38:20;8.60;;;5.90;;
81298;SDS011;70766;53.170;18.160;2023-09-19T06:40:48;16.30;;;7.60;;
81298;SDS011;70766;53.170;18.160;2023-09-19T06:43:16;11.40;;;7.00;;
81298;SDS011;70766;53.170;18.160;2023-09-19T06:45:45;10.70;;;6.40;;
81298;SDS011;70766;53.170;18.160;2023-09-19T06:48:13;11.50;;;6.70;;
81298;SDS011;70766;53.170;18.160;2023-09-19T06:50:42;16.60;;;8.40;;
81298;SDS011;70766;53.170;18.160;2023-09-19T06:53:11;9.70;;;6.20;;
81298;SDS011;70766;53.170;18.160;2023-09-19T06:55:40;11.10;;;6.70;;
81298;SDS011;70766;53.170;18.160;2023-09-19T06:58:08;12.50;;;6.90;;
81298;SDS011;70766;53.170;18.160;2023-09-19T07:00:36;9.60;;;6.00;;
81298;SDS011;70766;53.170;18.160;2023-09-19T07:03:06;10.00;;;5.80;;
81298;SDS011;70766;53.170;18.160;2023-09-19T07:05:37;8.70;;;5.90;;
81298;SDS011;70766;53.170;18.160;2023-09-19T07:08:10;9.80;;;6.10;;
81298;SDS011;70766;53.170;18.160;2023-09-19T07:10:41;13.60;;;7.20;;
81298;SDS011;70766;53.170;18.160;2023-09-19T07:13:16;15.10;;;7.10;;
81298;SDS011;70766;53.170;18.160;2023-09-19T07:15:45;12.20;;;6.60;;
81298;SDS011;70766;53.170;18.160;2023-09-19T07:18:18;10.90;;;6.30;;
81298;SDS011;70766;53.170;18.160;2023-09-19T07:20:48;10.40;;;6.20;;
81298;SDS011;70766;53.170;18.160;2023-09-19T07:23:19;12.90;;;6.90;;
81298;SDS011;70766;53.170;18.160;2023-09-19T07:25:48;14.30;;;7.30;;
81298;SDS011;70766;53.170;18.160;2023-09-19T07:28:17;8.60;;;5.70;;
81298;SDS011;70766;53.170;18.160;2023-09-19T07:30:45;7.80;;;5.20;;
81298;SDS011;70766;53.170;18.160;2023-09-19T07:33:13;11.60;;;5.80;;
81298;SDS011;70766;53.170;18.160;2023-09-19T07:35:45;12.00;;;6.10;;
81298;SDS011;70766;53.170;18.160;2023-09-19T07:38:14;11.80;;;7.10;;
81298;SDS011;70766;53.170;18.160;2023-09-19T07:40:42;8.70;;;5.80;;
81298;SDS011;70766;53.170;18.160;2023-09-19T07:43:11;14.70;;;7.50;;
81298;SDS011;70766;53.170;18.160;2023-09-19T07:45:40;16.90;;;8.50;;
81298;SDS011;70766;53.170;18.160;2023-09-19T07:48:09;11.50;;;7.30;;
81298;SDS011;70766;53.170;18.160;2023-09-19T07:50:43;12.40;;;6.40;;
81298;SDS011;70766;53.170;18.160;2023-09-19T07:53:14;13.80;;;7.00;;
81298;SDS011;70766;53.170;18.160;2023-09-19T07:55:44;9.30;;;6.00;;
81298;SDS011;70766;53.170;18.160;2023-09-19T07:58:16;10.50;;;6.20;;
81298;SDS011;70766;53.170;18.160;2023-09-19T08:00:44;13.10;;;6.70;;
81298;SDS011;70766;53.170;18.160;2023-09-19T08:03:14;8.70;;;5.20;;
81298;SDS011;70766;53.170;18.160;2023-09-19T08:05:46;15.60;;;7.40;;
81298;SDS011;70766;53.170;18.160;2023-09-19T08:08:16;10.00;;;6.40;;
81298;SDS011;70766;53.170;18.160;2023-09-19T08:10:44;11.10;;;6.50;;
81298;SDS011;70766;53.170;18.160;2023-09-19T08:13:14;8.50;;;5.60;;
81298;SDS011;70766;53.170;18.160;2023-09-19T08:15:45;10.40;;;6.50;;
81298;SDS011;70766;53.170;18.160;2023-09-19T08:18:14;10.30;;;6.20;;
81298;SDS011;70766;53.170;18.160;2023-09-19T08:20:49;11.00;;;6.50;;
81298;SDS011;70766;53.170;18.160;2023-09-19T08:23:18;15.40;;;7.40;;
81298;SDS011;70766;53.170;18.160;2023-09-19T08:25:49;12.40;;;6.60;;
81298;SDS011;70766;53.170;18.160;2023-09-19T08:28:17;14.50;;;7.00;;
81298;SDS011;70766;53.170;18.160;2023-09-19T08:30:52;15.20;;;7.60;;
81298;SDS011;70766;53.170;18.160;2023-09-19T08:33:23;11.10;;;6.50;;
81298;SDS011;70766;53.170;18.160;2023-09-19T08:35:51;10.90;;;6.80;;
81298;SDS011;70766;53.170;18.160;2023-09-19T08:38:19;14.10;;;7.30;;
81298;SDS011;70766;53.170;18.160;2023-09-19T08:40:47;8.60;;;5.10;;
81298;SDS011;70766;53.170;18.160;2023-09-19T08:43:16;8.30;;;5.30;;
81298;SDS011;70766;53.170;18.160;2023-09-19T08:45:44;10.80;;;6.10;;
81298;SDS011;70766;53.170;18.160;2023-09-19T08:50:57;6.40;;;4.90;;
81298;SDS011;70766;53.170;18.160;2023-09-19T08:56:19;9.50;;;5.40;;
81298;SDS011;70766;53.170;18.160;2023-09-19T08:58:50;7.00;;;4.70;;
81298;SDS011;70766;53.170;18.160;2023-09-19T09:01:22;6.70;;;4.00;;
81298;SDS011;70766;53.170;18.160;2023-09-19T09:03:54;7.50;;;4.00;;
81298;SDS011;70766;53.170;18.160;2023-09-19T09:06:23;7.30;;;4.50;;
81298;SDS011;70766;53.170;18.160;2023-09-19T09:08:53;7.40;;;4.00;;
81298;SDS011;70766;53.170;18.160;2023-09-19T09:11:21;7.80;;;4.10;;
81298;SDS011;70766;53.170;18.160;2023-09-19T09:13:52;8.70;;;4.40;;
81298;SDS011;70766;53.170;18.160;2023-09-19T09:16:21;5.90;;;3.80;;
81298;SDS011;70766;53.170;18.160;2023-09-19T09:18:52;9.70;;;4.00;;
81298;SDS011;70766;53.170;18.160;2023-09-19T09:21:25;5.80;;;3.60;;
81298;SDS011;70766;53.170;18.160;2023-09-19T09:23:54;6.10;;;4.10;;
81298;SDS011;70766;53.170;18.160;2023-09-19T09:29:41;5.30;;;3.00;;
81298;SDS011;70766;53.170;18.160;2023-09-19T09:32:24;5.00;;;3.20;;
81298;SDS011;70766;53.170;18.160;2023-09-19T09:34:57;5.10;;;3.20;;
81298;SDS011;70766;53.170;18.160;2023-09-19T09:37:28;8.10;;;3.90;;
81298;SDS011;70766;53.170;18.160;2023-09-19T09:39:59;4.60;;;3.00;;
81298;SDS011;70766;53.170;18.160;2023-09-19T09:42:44;6.60;;;3.00;;
81298;SDS011;70766;53.170;18.160;2023-09-19T09:45:23;3.90;;;2.80;;
81298;SDS011;70766;53.170;18.160;2023-09-19T09:48:12;5.60;;;2.90;;
81298;SDS011;70766;53.170;18.160;2023-09-19T09:50:46;6.00;;;3.00;;
81298;SDS011;70766;53.170;18.160;2023-09-19T09:53:20;6.00;;;3.10;;
81298;SDS011;70766;53.170;18.160;2023-09-19T09:56:04;5.40;;;2.80;;
81298;SDS011;70766;53.170;18.160;2023-09-19T10:01:15;3.30;;;2.60;;
81298;SDS011;70766;53.170;18.160;2023-09-19T10:03:45;8.10;;;2.60;;
81298;SDS011;70766;53.170;18.160;2023-09-19T10:06:17;4.90;;;2.80;;
81298;SDS011;70766;53.170;18.160;2023-09-19T10:08:59;4.10;;;2.60;;
81298;SDS011;70766;53.170;18.160;2023-09-19T10:11:39;4.40;;;2.40;;
81298;SDS011;70766;53.170;18.160;2023-09-19T10:14:11;5.10;;;2.50;;
81298;SDS011;70766;53.170;18.160;2023-09-19T10:16:47;3.90;;;2.40;;
81298;SDS011;70766;53.170;18.160;2023-09-19T10:19:23;4.10;;;2.50;;
81298;SDS011;70766;53.170;18.160;2023-09-19T10:21:58;5.30;;;2.50;;
81298;SDS011;70766;53.170;18.160;2023-09-19T10:24:29;5.00;;;2.30;;
81298;SDS011;70766;53.170;18.160;2023-09-19T10:26:59;5.10;;;2.80;;
81298;SDS011;70766;53.170;18.160;2023-09-19T10:29:28;4.20;;;2.40;;
81298;SDS011;70766;53.170;18.160;2023-09-19T10:32:00;4.40;;;2.20;;
81298;SDS011;70766;53.170;18.160;2023-09-19T10:34:34;3.70;;;2.40;;
81298;SDS011;70766;53.170;18.160;2023-09-19T10:37:03;3.10;;;1.90;;
81298;SDS011;70766;53.170;18.160;2023-09-19T10:39:33;4.00;;;1.70;;
81298;SDS011;70766;53.170;18.160;2023-09-19T10:42:06;3.90;;;1.90;;
81298;SDS011;70766;53.170;18.160;2023-09-19T10:44:40;4.40;;;2.30;;
81298;SDS011;70766;53.170;18.160;2023-09-19T10:47:11;4.90;;;2.10;;
81298;SDS011;70766;53.170;18.160;2023-09-19T10:49:44;4.20;;;2.00;;
81298;SDS011;70766;53.170;18.160;2023-09-19T10:52:17;4.00;;;2.20;;
81298;SDS011;70766;53.170;18.160;2023-09-19T10:54:51;8.70;;;2.40;;
81298;SDS011;70766;53.170;18.160;2023-09-19T10:57:25;6.90;;;2.00;;
81298;SDS011;70766;53.170;18.160;2023-09-19T11:00:30;3.70;;;2.00;;
81298;SDS011;70766;53.170;18.160;2023-09-19T11:05:41;6.00;;;2.20;;
81298;SDS011;70766;53.170;18.160;2023-09-19T11:08:10;3.70;;;1.90;;
81298;SDS011;70766;53.170;18.160;2023-09-19T11:10:49;3.80;;;1.90;;
81298;SDS011;70766;53.170;18.160;2023-09-19T11:13:25;3.30;;;1.80;;
81298;SDS011;70766;53.170;18.160;2023-09-19T11:16:03;4.20;;;2.10;;
81298;SDS011;70766;53.170;18.160;2023-09-19T11:26:50;6.10;;;1.70;;
81298;SDS011;70766;53.170;18.160;2023-09-19T11:29:29;5.40;;;2.10;;
81298;SDS011;70766;53.170;18.160;2023-09-19T11:31:59;5.00;;;1.70;;
81298;SDS011;70766;53.170;18.160;2023-09-19T11:34:37;2.50;;;1.40;;
81298;SDS011;70766;53.170;18.160;2023-09-19T11:42:44;2.80;;;1.70;;
81298;SDS011;70766;53.170;18.160;2023-09-19T11:48:08;4.70;;;1.30;;
81298;SDS011;70766;53.170;18.160;2023-09-19T11:50:36;4.00;;;1.70;;
81298;SDS011;70766;53.170;18.160;2023-09-19T11:53:05;3.60;;;2.00;;
81298;SDS011;70766;53.170;18.160;2023-09-19T11:55:35;2.40;;;1.70;;
81298;SDS011;70766;53.170;18.160;2023-09-19T11:58:06;4.10;;;2.10;;
81298;SDS011;70766;53.170;18.160;2023-09-19T12:00:36;5.00;;;2.10;;
81298;SDS011;70766;53.170;18.160;2023-09-19T12:03:08;7.40;;;1.70;;
81298;SDS011;70766;53.170;18.160;2023-09-19T12:05:37;4.60;;;1.80;;
81298;SDS011;70766;53.170;18.160;2023-09-19T12:08:07;2.80;;;1.40;;
81298;SDS011;70766;53.170;18.160;2023-09-19T12:10:47;4.10;;;1.90;;
81298;SDS011;70766;53.170;18.160;2023-09-19T12:13:17;4.40;;;1.70;;
81298;SDS011;70766;53.170;18.160;2023-09-19T12:15:46;3.50;;;1.70;;
81298;SDS011;70766;53.170;18.160;2023-09-19T12:18:29;3.80;;;1.30;;
81298;SDS011;70766;53.170;18.160;2023-09-19T12:20:58;3.80;;;2.00;;
81298;SDS011;70766;53.170;18.160;2023-09-19T12:23:26;3.00;;;1.70;;
81298;SDS011;70766;53.170;18.160;2023-09-19T12:25:55;4.70;;;1.80;;
81298;SDS011;70766;53.170;18.160;2023-09-19T12:28:26;4.70;;;1.70;;
81298;SDS011;70766;53.170;18.160;2023-09-19T12:30:55;4.20;;;1.70;;
81298;SDS011;70766;53.170;18.160;2023-09-19T12:33:23;3.60;;;1.60;;
81298;SDS011;70766;53.170;18.160;2023-09-19T12:35:54;4.20;;;1.50;;
81298;SDS011;70766;53.170;18.160;2023-09-19T12:38:25;2.40;;;1.70;;
81298;SDS011;70766;53.170;18.160;2023-09-19T12:41:01;4.00;;;1.70;;
81298;SDS011;70766;53.170;18.160;2023-09-19T12:43:29;4.00;;;1.70;;
81298;SDS011;70766;53.170;18.160;2023-09-19T12:46:02;3.70;;;1.80;;
81298;SDS011;70766;53.170;18.160;2023-09-19T12:48:30;3.00;;;1.60;;
81298;SDS011;70766;53.170;18.160;2023-09-19T12:51:03;4.40;;;2.10;;
81298;SDS011;70766;53.170;18.160;2023-09-19T12:53:43;4.30;;;1.70;;
81298;SDS011;70766;53.170;18.160;2023-09-19T12:56:14;3.40;;;1.60;;
81298;SDS011;70766;53.170;18.160;2023-09-19T12:58:50;5.70;;;1.50;;
81298;SDS011;70766;53.170;18.160;2023-09-19T13:01:29;4.50;;;1.90;;
81298;SDS011;70766;53.170;18.160;2023-09-19T13:06:54;2.60;;;1.50;;
81298;SDS011;70766;53.170;18.160;2023-09-19T13:09:23;3.70;;;1.70;;
81298;SDS011;70766;53.170;18.160;2023-09-19T13:11:59;3.40;;;1.90;;
81298;SDS011;70766;53.170;18.160;2023-09-19T13:14:30;4.40;;;1.60;;
81298;SDS011;70766;53.170;18.160;2023-09-19T13:17:08;3.90;;;1.90;;
81298;SDS011;70766;53.170;18.160;2023-09-19T13:19:48;5.40;;;2.10;;
81298;SDS011;70766;53.170;18.160;2023-09-19T13:22:36;5.90;;;2.10;;
81298;SDS011;70766;53.170;18.160;2023-09-19T13:25:19;8.00;;;1.90;;
81298;SDS011;70766;53.170;18.160;2023-09-19T13:27:49;4.90;;;1.60;;
81298;SDS011;70766;53.170;18.160;2023-09-19T13:30:22;5.50;;;1.80;;
81298;SDS011;70766;53.170;18.160;2023-09-19T13:35:35;4.60;;;2.20;;
81298;SDS011;70766;53.170;18.160;2023-09-19T13:38:06;4.10;;;1.90;;
81298;SDS011;70766;53.170;18.160;2023-09-19T13:40:40;3.20;;;1.60;;
81298;SDS011;70766;53.170;18.160;2023-09-19T13:43:12;3.30;;;2.00;;
81298;SDS011;70766;53.170;18.160;2023-09-19T13:45:40;4.10;;;1.90;;
81298;SDS011;70766;53.170;18.160;2023-09-19T13:48:11;4.40;;;2.10;;
81298;SDS011;70766;53.170;18.160;2023-09-19T13:50:40;5.30;;;2.10;;
81298;SDS011;70766;53.170;18.160;2023-09-19T13:53:11;4.60;;;1.90;;
81298;SDS011;70766;53.170;18.160;2023-09-19T13:55:39;6.10;;;2.00;;
81298;SDS011;70766;53.170;18.160;2023-09-19T13:58:09;5.70;;;2.00;;
81298;SDS011;70766;53.170;18.160;2023-09-19T14:00:38;5.00;;;1.80;;
81298;SDS011;70766;53.170;18.160;2023-09-19T14:03:07;3.30;;;1.80;;
81298;SDS011;70766;53.170;18.160;2023-09-19T14:05:37;5.60;;;1.90;;
81298;SDS011;70766;53.170;18.160;2023-09-19T14:08:05;4.00;;;2.20;;
81298;SDS011;70766;53.170;18.160;2023-09-19T14:10:33;3.50;;;2.60;;
81298;SDS011;70766;53.170;18.160;2023-09-19T14:13:02;4.30;;;2.10;;
81298;SDS011;70766;53.170;18.160;2023-09-19T14:15:31;6.00;;;1.90;;
81298;SDS011;70766;53.170;18.160;2023-09-19T14:18:02;5.20;;;2.10;;
81298;SDS011;70766;53.170;18.160;2023-09-19T14:20:31;4.30;;;2.40;;
81298;SDS011;70766;53.170;18.160;2023-09-19T14:22:59;5.00;;;2.40;;
81298;SDS011;70766;53.170;18.160;2023-09-19T14:25:28;6.40;;;1.90;;
81298;SDS011;70766;53.170;18.160;2023-09-19T14:27:58;4.50;;;2.00;;
81298;SDS011;70766;53.170;18.160;2023-09-19T14:30:26;4.40;;;2.00;;
81298;SDS011;70766;53.170;18.160;2023-09-19T14:32:55;4.60;;;2.50;;
81298;SDS011;70766;53.170;18.160;2023-09-19T14:35:26;3.40;;;2.50;;
81298;SDS011;70766;53.170;18.160;2023-09-19T14:37:54;6.20;;;2.10;;
81298;SDS011;70766;53.170;18.160;2023-09-19T14:40:23;5.70;;;2.30;;
81298;SDS011;70766;53.170;18.160;2023-09-19T14:42:54;3.20;;;2.10;;
81298;SDS011;70766;53.170;18.160;2023-09-19T14:45:22;6.10;;;2.50;;
81298;SDS011;70766;53.170;18.160;2023-09-19T14:47:50;4.50;;;2.10;;
81298;SDS011;70766;53.170;18.160;2023-09-19T14:50:22;7.00;;;2.30;;
81298;SDS011;70766;53.170;18.160;2023-09-19T14:52:51;5.90;;;2.20;;
81298;SDS011;70766;53.170;18.160;2023-09-19T14:55:21;4.90;;;2.10;;
81298;SDS011;70766;53.170;18.160;2023-09-19T14:57:51;4.50;;;2.20;;
81298;SDS011;70766;53.170;18.160;2023-09-19T15:00:19;4.80;;;2.40;;
81298;SDS011;70766;53.170;18.160;2023-09-19T15:02:49;4.60;;;2.50;;
81298;SDS011;70766;53.170;18.160;2023-09-19T15:05:18;4.20;;;2.50;;
81298;SDS011;70766;53.170;18.160;2023-09-19T15:07:47;3.50;;;1.90;;
81298;SDS011;70766;53.170;18.160;2023-09-19T15:10:15;6.40;;;2.50;;
81298;SDS011;70766;53.170;18.160;2023-09-19T15:12:44;6.00;;;2.40;;
81298;SDS011;70766;53.170;18.160;2023-09-19T15:15:12;5.20;;;2.40;;
81298;SDS011;70766;53.170;18.160;2023-09-19T15:17:40;4.40;;;2.20;;
81298;SDS011;70766;53.170;18.160;2023-09-19T15:20:09;4.40;;;2.10;;
81298;SDS011;70766;53.170;18.160;2023-09-19T15:22:42;5.20;;;2.80;;
81298;SDS011;70766;53.170;18.160;2023-09-19T15:25:10;6.20;;;2.90;;
81298;SDS011;70766;53.170;18.160;2023-09-19T15:27:38;5.40;;;2.40;;
81298;SDS011;70766;53.170;18.160;2023-09-19T15:30:09;4.10;;;2.30;;
81298;SDS011;70766;53.170;18.160;2023-09-19T15:32:38;6.50;;;2.30;;
81298;SDS011;70766;53.170;18.160;2023-09-19T15:35:07;5.10;;;2.70;;
81298;SDS011;70766;53.170;18.160;2023-09-19T15:37:40;5.80;;;2.30;;
81298;SDS011;70766;53.170;18.160;2023-09-19T15:40:09;4.90;;;2.40;;
81298;SDS011;70766;53.170;18.160;2023-09-19T15:42:40;6.20;;;2.40;;